Terminal Aerodrome Forecast
Issued by NWS

Home | Current Version | Previous Version | Graphics & Text | Print | Product List | Glossary On
Versions: 1 2 3 4 5 6 7 8 9 10 11 12 13 14 15 16 17 18 19 20 21 22
000
FTUS43 KGRB 241728
TAFAUW
TAF
KAUW 241728Z 2418/2518 10010G15KT P6SM SCT020 BKN100
     FM242200 10010G17KT P6SM BKN015 OVC090
     FM250100 10014G25KT 5SM -SNPL OVC015
     FM250300 12013G23KT 1SM -SNPL BR OVC005 WS020/12045KT
      TEMPO 2504/2508 1/2SM SN OVC003
     FM250800 25015G25KT 2SM -FZDZSN BR OVC005
     FM251000 26018G31KT P6SM BKN015=

USA.gov is the U.S. government's official web portal to all federal, state and local government web resources and services.